Fairbanks, Minnesota
Current Conditions -  °F | °C
As of 5:14 PM on Wednesday 26 Nov 2014 (Local Time) from KTWM Reporting Station
Clear Clear  
Wind Chill:   Ceiling: Unl
Heat Index: 16°   Visibility: 10mi
Dew Point:   Wind: 6mph
Humidity: 68%   Direction: 320°NW
Pressure: 30.25"   Gusts: NA
Location:  47.3998°N, 91.9141°W
Report Text: KTWM 262314Z AUTO 32005KT 10SM CLR M09/M14 A3025 RMK AO2
Loading
Personal Weather Stations






























Interactive Weather Map New forecast layout! Learn more

10-Day Weather Forecast

Advertisements
Track Severe Weather on mobile